sensor_id;sensor_type;location;lat;lon;timestamp;pressure;altitude;pressure_sealevel;temperature;humidity
63819;BME280;49970;54.976;73.248;2023-03-22T00:01:16;100961.09;;;-5.02;81.33
63819;BME280;49970;54.976;73.248;2023-03-22T00:03:49;100958.50;;;-5.02;81.15
63819;BME280;49970;54.976;73.248;2023-03-22T00:06:16;100959.38;;;-5.01;81.34
63819;BME280;49970;54.976;73.248;2023-03-22T00:08:43;100947.28;;;-5.07;81.12
63819;BME280;49970;54.976;73.248;2023-03-22T00:11:11;100961.09;;;-4.98;81.12
63819;BME280;49970;54.976;73.248;2023-03-22T00:13:38;100959.38;;;-4.96;80.98
63819;BME280;49970;54.976;73.248;2023-03-22T00:16:04;100961.97;;;-4.96;81.13
63819;BME280;49970;54.976;73.248;2023-03-22T00:18:31;100962.81;;;-4.94;80.65
63819;BME280;49970;54.976;73.248;2023-03-22T00:20:58;100961.94;;;-4.93;80.88
63819;BME280;49970;54.976;73.248;2023-03-22T00:23:27;100965.41;;;-4.90;80.32
63819;BME280;49970;54.976;73.248;2023-03-22T00:25:54;100971.44;;;-4.89;80.92
63819;BME280;49970;54.976;73.248;2023-03-22T00:28:21;100956.81;;;-4.92;80.50
63819;BME280;49970;54.976;73.248;2023-03-22T00:30:59;100967.13;;;-4.86;80.76
63819;BME280;49970;54.976;73.248;2023-03-22T00:33:29;100958.56;;;-4.85;80.28
63819;BME280;49970;54.976;73.248;2023-03-22T00:35:58;100951.63;;;-4.86;80.28
63819;BME280;49970;54.976;73.248;2023-03-22T00:38:30;100954.22;;;-4.86;80.20
63819;BME280;49970;54.976;73.248;2023-03-22T00:41:16;100951.66;;;-4.81;80.61
63819;BME280;49970;54.976;73.248;2023-03-22T00:43:45;100952.53;;;-4.81;79.75
63819;BME280;49970;54.976;73.248;2023-03-22T00:46:13;100937.00;;;-4.82;80.00
63819;BME280;49970;54.976;73.248;2023-03-22T00:48:40;100945.63;;;-4.77;79.35
63819;BME280;49970;54.976;73.248;2023-03-22T00:51:10;100942.22;;;-4.76;79.89
63819;BME280;49970;54.976;73.248;2023-03-22T00:53:46;100943.06;;;-4.74;79.36
63819;BME280;49970;54.976;73.248;2023-03-22T00:56:16;100932.72;;;-4.76;79.33
63819;BME280;49970;54.976;73.248;2023-03-22T00:58:57;100931.00;;;-4.72;79.44
63819;BME280;49970;54.976;73.248;2023-03-22T01:01:23;100937.88;;;-4.69;79.11
63819;BME280;49970;54.976;73.248;2023-03-22T01:03:49;100936.19;;;-4.67;79.25
63819;BME280;49970;54.976;73.248;2023-03-22T01:06:16;100937.03;;;-4.65;79.43
63819;BME280;49970;54.976;73.248;2023-03-22T01:08:42;100930.16;;;-4.68;78.98
63819;BME280;49970;54.976;73.248;2023-03-22T01:11:09;100943.94;;;-4.63;79.07
63819;BME280;49970;54.976;73.248;2023-03-22T01:13:35;100931.00;;;-4.63;79.22
63819;BME280;49970;54.976;73.248;2023-03-22T01:16:03;100935.31;;;-4.60;78.92
63819;BME280;49970;54.976;73.248;2023-03-22T01:18:30;100937.88;;;-4.60;78.94
63819;BME280;49970;54.976;73.248;2023-03-22T01:21:07;100943.94;;;-4.60;78.36
63819;BME280;49970;54.976;73.248;2023-03-22T01:23:34;100937.03;;;-4.56;78.29
63819;BME280;49970;54.976;73.248;2023-03-22T01:26:00;100938.78;;;-4.55;78.94
63819;BME280;49970;54.976;73.248;2023-03-22T01:28:27;100943.94;;;-4.54;79.03
63819;BME280;49970;54.976;73.248;2023-03-22T01:30:54;100931.88;;;-4.53;78.66
63819;BME280;49970;54.976;73.248;2023-03-22T01:33:21;100927.56;;;-4.56;78.50
63819;BME280;49970;54.976;73.248;2023-03-22T01:35:47;100936.19;;;-4.49;78.57
63819;BME280;49970;54.976;73.248;2023-03-22T01:38:14;100933.59;;;-4.49;78.55
63819;BME280;49970;54.976;73.248;2023-03-22T01:40:49;100934.47;;;-4.47;78.70
63819;BME280;49970;54.976;73.248;2023-03-22T01:43:16;100933.59;;;-4.44;78.89
63819;BME280;49970;54.976;73.248;2023-03-22T01:45:47;100918.06;;;-4.47;78.59
63819;BME280;49970;54.976;73.248;2023-03-22T01:48:20;100918.09;;;-4.43;77.95
63819;BME280;49970;54.976;73.248;2023-03-22T01:50:56;100919.81;;;-4.42;77.65
63819;BME280;49970;54.976;73.248;2023-03-22T01:53:26;100924.97;;;-4.40;78.24
63819;BME280;49970;54.976;73.248;2023-03-22T01:55:54;100925.84;;;-4.38;78.50
63819;BME280;49970;54.976;73.248;2023-03-22T01:58:30;100925.84;;;-4.37;77.94
63819;BME280;49970;54.976;73.248;2023-03-22T02:01:01;100926.69;;;-4.36;78.14
63819;BME280;49970;54.976;73.248;2023-03-22T02:06:24;100926.72;;;-4.30;77.88
63819;BME280;49970;54.976;73.248;2023-03-22T02:09:00;100931.03;;;-4.26;77.29
63819;BME280;49970;54.976;73.248;2023-03-22T02:11:33;100927.56;;;-4.23;77.44
63819;BME280;49970;54.976;73.248;2023-03-22T02:17:18;100923.25;;;-4.17;77.33
63819;BME280;49970;54.976;73.248;2023-03-22T02:25:33;100927.53;;;-4.10;77.84
63819;BME280;49970;54.976;73.248;2023-03-22T02:31:13;100931.84;;;-4.06;77.51
63819;BME280;49970;54.976;73.248;2023-03-22T02:42:27;100930.13;;;-3.96;77.48
63819;BME280;49970;54.976;73.248;2023-03-22T02:48:27;100933.53;;;-3.89;77.04
63819;BME280;49970;54.976;73.248;2023-03-22T02:51:02;100936.13;;;-3.83;77.44
63819;BME280;49970;54.976;73.248;2023-03-22T02:54:01;100937.81;;;-3.81;77.47
63819;BME280;49970;54.976;73.248;2023-03-22T02:56:45;100939.53;;;-3.77;77.55
63819;BME280;49970;54.976;73.248;2023-03-22T02:59:16;100941.28;;;-3.74;77.72
63819;BME280;49970;54.976;73.248;2023-03-22T03:01:56;100949.03;;;-3.71;77.31
63819;BME280;49970;54.976;73.248;2023-03-22T03:04:27;100944.72;;;-3.69;77.52
63819;BME280;49970;54.976;73.248;2023-03-22T03:07:00;100950.75;;;-3.65;77.68
63819;BME280;49970;54.976;73.248;2023-03-22T03:09:30;100945.56;;;-3.64;77.83
63819;BME280;49970;54.976;73.248;2023-03-22T03:11:59;100945.56;;;-3.61;77.34
63819;BME280;49970;54.976;73.248;2023-03-22T03:14:30;100948.13;;;-3.58;77.64
63819;BME280;49970;54.976;73.248;2023-03-22T03:19:52;100963.63;;;-3.48;77.88
63819;BME280;49970;54.976;73.248;2023-03-22T03:28:52;100961.88;;;-3.43;77.39
63819;BME280;49970;54.976;73.248;2023-03-22T03:36:27;100961.84;;;-3.31;77.46
63819;BME280;49970;54.976;73.248;2023-03-22T03:38:55;100961.84;;;-3.25;78.01
63819;BME280;49970;54.976;73.248;2023-03-22T03:41:27;100957.47;;;-3.18;78.09
63819;BME280;49970;54.976;73.248;2023-03-22T03:43:56;100962.63;;;-3.14;78.17
63819;BME280;49970;54.976;73.248;2023-03-22T03:46:24;100955.75;;;-3.13;78.21
63819;BME280;49970;54.976;73.248;2023-03-22T03:48:55;100968.63;;;-3.03;78.05
63819;BME280;49970;54.976;73.248;2023-03-22T03:51:22;100963.44;;;-2.99;78.23
63819;BME280;49970;54.976;73.248;2023-03-22T03:53:48;100972.03;;;-2.93;77.97
63819;BME280;49970;54.976;73.248;2023-03-22T03:56:28;100970.28;;;-2.88;77.95
63819;BME280;49970;54.976;73.248;2023-03-22T03:58:56;100965.06;;;-2.85;78.15
63819;BME280;49970;54.976;73.248;2023-03-22T04:01:28;100967.63;;;-2.77;77.71
63819;BME280;49970;54.976;73.248;2023-03-22T04:04:05;100966.72;;;-2.70;77.80
63819;BME280;49970;54.976;73.248;2023-03-22T04:06:59;100969.25;;;-2.61;77.45
63819;BME280;49970;54.976;73.248;2023-03-22T04:09:33;100973.53;;;-2.51;77.47
63819;BME280;49970;54.976;73.248;2023-03-22T04:12:19;100975.13;;;-2.36;77.50
63819;BME280;49970;54.976;73.248;2023-03-22T04:15:06;100979.31;;;-2.18;76.83
63819;BME280;49970;54.976;73.248;2023-03-22T04:17:38;100971.41;;;-2.06;76.61
63819;BME280;49970;54.976;73.248;2023-03-22T04:20:07;100967.88;;;-1.95;76.48
63819;BME280;49970;54.976;73.248;2023-03-22T04:22:37;100964.34;;;-1.88;76.23
63819;BME280;49970;54.976;73.248;2023-03-22T04:25:09;100966.84;;;-1.78;76.14
63819;BME280;49970;54.976;73.248;2023-03-22T04:27:57;100961.56;;;-1.67;76.23
63819;BME280;49970;54.976;73.248;2023-03-22T04:30:26;100954.53;;;-1.59;75.82
63819;BME280;49970;54.976;73.248;2023-03-22T04:32:58;100946.72;;;-1.57;75.64
63819;BME280;49970;54.976;73.248;2023-03-22T04:35:51;100944.97;;;-1.57;75.64
63819;BME280;49970;54.976;73.248;2023-03-22T04:38:26;100944.94;;;-1.55;75.48
63819;BME280;49970;54.976;73.248;2023-03-22T04:40:54;100951.00;;;-1.53;75.64
63819;BME280;49970;54.976;73.248;2023-03-22T04:43:43;100946.63;;;-1.49;75.82
63819;BME280;49970;54.976;73.248;2023-03-22T04:46:14;100948.34;;;-1.48;75.52
63819;BME280;49970;54.976;73.248;2023-03-22T04:48:52;100949.16;;;-1.46;75.42
63819;BME280;49970;54.976;73.248;2023-03-22T04:51:18;100954.38;;;-1.45;75.24
63819;BME280;49970;54.976;73.248;2023-03-22T04:54:02;100934.47;;;-1.46;75.20
63819;BME280;49970;54.976;73.248;2023-03-22T04:56:28;100937.03;;;-1.44;75.65
63819;BME280;49970;54.976;73.248;2023-03-22T04:58:54;100933.53;;;-1.40;75.57
63819;BME280;49970;54.976;73.248;2023-03-22T05:01:21;100923.97;;;-1.38;75.70
63819;BME280;49970;54.976;73.248;2023-03-22T05:03:56;100926.59;;;-1.40;75.37
63819;BME280;49970;54.976;73.248;2023-03-22T05:06:22;100929.97;;;-1.35;75.45
63819;BME280;49970;54.976;73.248;2023-03-22T05:08:58;100922.22;;;-1.36;75.89
63819;BME280;49970;54.976;73.248;2023-03-22T05:11:29;100926.50;;;-1.32;76.05
63819;BME280;49970;54.976;73.248;2023-03-22T05:14:23;100919.56;;;-1.32;76.13
63819;BME280;49970;54.976;73.248;2023-03-22T05:16:49;100921.28;;;-1.29;76.37
63819;BME280;49970;54.976;73.248;2023-03-22T05:19:16;100926.47;;;-1.31;76.50
63819;BME280;49970;54.976;73.248;2023-03-22T05:21:56;100920.38;;;-1.28;76.95
63819;BME280;49970;54.976;73.248;2023-03-22T05:24:40;100923.88;;;-1.29;76.94
63819;BME280;49970;54.976;73.248;2023-03-22T05:27:11;100924.66;;;-1.24;77.24
63819;BME280;49970;54.976;73.248;2023-03-22T05:29:40;100918.56;;;-1.20;77.22
63819;BME280;49970;54.976;73.248;2023-03-22T05:32:26;100919.38;;;-1.16;77.17
63819;BME280;49970;54.976;73.248;2023-03-22T05:35:04;100919.28;;;-1.10;77.41
63819;BME280;49970;54.976;73.248;2023-03-22T05:37:36;100923.53;;;-1.05;77.68
63819;BME280;49970;54.976;73.248;2023-03-22T05:40:03;100919.97;;;-0.97;77.66
63819;BME280;49970;54.976;73.248;2023-03-22T05:42:40;100915.56;;;-0.92;76.84
63819;BME280;49970;54.976;73.248;2023-03-22T05:45:27;100915.50;;;-0.88;76.61
63819;BME280;49970;54.976;73.248;2023-03-22T05:48:11;100912.00;;;-0.85;76.54
63819;BME280;49970;54.976;73.248;2023-03-22T05:50:38;100922.34;;;-0.82;75.98
63819;BME280;49970;54.976;73.248;2023-03-22T05:53:04;100900.66;;;-0.81;76.04
63819;BME280;49970;54.976;73.248;2023-03-22T05:55:54;100905.72;;;-0.72;75.58
63819;BME280;49970;54.976;73.248;2023-03-22T05:58:36;100911.75;;;-0.68;75.17
63819;BME280;49970;54.976;73.248;2023-03-22T06:01:10;100901.28;;;-0.65;74.50
63819;BME280;49970;54.976;73.248;2023-03-22T06:03:51;100898.66;;;-0.64;73.76
63819;BME280;49970;54.976;73.248;2023-03-22T06:06:53;100893.44;;;-0.64;73.54
63819;BME280;49970;54.976;73.248;2023-03-22T06:09:34;100893.41;;;-0.61;73.71
63819;BME280;49970;54.976;73.248;2023-03-22T06:12:05;100898.56;;;-0.58;73.64
63819;BME280;49970;54.976;73.248;2023-03-22T06:14:42;100893.31;;;-0.55;73.60
63819;BME280;49970;54.976;73.248;2023-03-22T06:17:44;100894.13;;;-0.51;74.26
63819;BME280;49970;54.976;73.248;2023-03-22T06:20:14;100887.97;;;-0.47;74.14
63819;BME280;49970;54.976;73.248;2023-03-22T06:22:48;100893.13;;;-0.44;74.06
63819;BME280;49970;54.976;73.248;2023-03-22T06:25:16;100889.66;;;-0.43;73.96
63819;BME280;49970;54.976;73.248;2023-03-22T06:27:45;100892.19;;;-0.40;73.64
63819;BME280;49970;54.976;73.248;2023-03-22T06:30:11;100887.81;;;-0.36;73.67
63819;BME280;49970;54.976;73.248;2023-03-22T06:33:14;100886.88;;;-0.32;74.21
63819;BME280;49970;54.976;73.248;2023-03-22T06:35:53;100889.44;;;-0.31;73.84
63819;BME280;49970;54.976;73.248;2023-03-22T06:38:41;100885.84;;;-0.23;73.92
63819;BME280;49970;54.976;73.248;2023-03-22T06:41:07;100873.66;;;-0.21;74.01
63819;BME280;49970;54.976;73.248;2023-03-22T06:43:34;100877.06;;;-0.16;74.43
63819;BME280;49970;54.976;73.248;2023-03-22T06:46:12;100891.66;;;-0.09;74.39
63819;BME280;49970;54.976;73.248;2023-03-22T06:48:57;100895.00;;;-0.01;74.67
63819;BME280;49970;54.976;73.248;2023-03-22T06:51:23;100896.59;;;0.06;74.81
63819;BME280;49970;54.976;73.248;2023-03-22T06:53:49;100887.84;;;0.10;74.39
63819;BME280;49970;54.976;73.248;2023-03-22T06:56:16;100892.91;;;0.16;73.59
63819;BME280;49970;54.976;73.248;2023-03-22T06:58:49;100893.72;;;0.21;73.30
63819;BME280;49970;54.976;73.248;2023-03-22T07:01:17;100883.13;;;0.29;74.02
63819;BME280;49970;54.976;73.248;2023-03-22T07:03:54;100882.88;;;0.41;73.35
63819;BME280;49970;54.976;73.248;2023-03-22T07:06:32;100880.13;;;0.51;71.82
63819;BME280;49970;54.976;73.248;2023-03-22T07:08:59;100883.28;;;0.65;70.90
63819;BME280;49970;54.976;73.248;2023-03-22T07:11:30;100876.06;;;0.78;70.09
63819;BME280;49970;54.976;73.248;2023-03-22T07:13:58;100875.78;;;0.90;68.85
63819;BME280;49970;54.976;73.248;2023-03-22T07:16:31;100879.94;;;0.98;68.23
63819;BME280;49970;54.976;73.248;2023-03-22T07:19:06;100878.06;;;1.04;67.53
63819;BME280;49970;54.976;73.248;2023-03-22T07:21:35;100882.38;;;1.06;67.59
63819;BME280;49970;54.976;73.248;2023-03-22T07:24:06;100886.66;;;1.09;66.87
63819;BME280;49970;54.976;73.248;2023-03-22T07:26:39;100880.47;;;1.13;65.75
63819;BME280;49970;54.976;73.248;2023-03-22T07:29:07;100877.84;;;1.13;65.84
63819;BME280;49970;54.976;73.248;2023-03-22T07:31:43;100877.97;;;1.08;65.71
63819;BME280;49970;54.976;73.248;2023-03-22T07:34:15;100875.63;;;0.96;65.61
63819;BME280;49970;54.976;73.248;2023-03-22T07:37:03;100881.84;;;0.90;66.68
63819;BME280;49970;54.976;73.248;2023-03-22T07:39:30;100876.00;;;0.81;65.36
63819;BME280;49970;54.976;73.248;2023-03-22T07:41:59;100874.34;;;0.75;64.89
63819;BME280;49970;54.976;73.248;2023-03-22T07:44:25;100870.88;;;0.74;65.13
63819;BME280;49970;54.976;73.248;2023-03-22T07:47:15;100861.25;;;0.78;65.94
63819;BME280;49970;54.976;73.248;2023-03-22T07:50:01;100861.16;;;0.83;66.25
63819;BME280;49970;54.976;73.248;2023-03-22T07:52:31;100868.84;;;0.89;66.54
63819;BME280;49970;54.976;73.248;2023-03-22T07:54:57;100860.94;;;0.92;65.53
63819;BME280;49970;54.976;73.248;2023-03-22T07:57:23;100857.47;;;0.91;65.40
63819;BME280;49970;54.976;73.248;2023-03-22T07:59:57;100854.88;;;0.91;65.73
63819;BME280;49970;54.976;73.248;2023-03-22T08:02:34;100853.91;;;0.95;64.78
63819;BME280;49970;54.976;73.248;2023-03-22T08:05:04;100851.25;;;0.98;64.37
63819;BME280;49970;54.976;73.248;2023-03-22T08:07:36;100845.84;;;1.06;64.88
63819;BME280;49970;54.976;73.248;2023-03-22T08:10:03;100843.84;;;1.17;64.80
63819;BME280;49970;54.976;73.248;2023-03-22T08:12:39;100846.19;;;1.28;63.88
63819;BME280;49970;54.976;73.248;2023-03-22T08:15:20;100840.84;;;1.33;63.24
63819;BME280;49970;54.976;73.248;2023-03-22T08:17:57;100843.47;;;1.33;63.28
63819;BME280;49970;54.976;73.248;2023-03-22T08:20:30;100844.19;;;1.39;63.95
63819;BME280;49970;54.976;73.248;2023-03-22T08:23:00;100843.31;;;1.39;63.27
63819;BME280;49970;54.976;73.248;2023-03-22T08:25:53;100838.19;;;1.36;62.28
63819;BME280;49970;54.976;73.248;2023-03-22T08:28:27;100842.66;;;1.31;62.11
63819;BME280;49970;54.976;73.248;2023-03-22T08:30:59;100839.31;;;1.26;61.87
63819;BME280;49970;54.976;73.248;2023-03-22T08:33:25;100839.31;;;1.24;62.20
63819;BME280;49970;54.976;73.248;2023-03-22T08:36:05;100830.72;;;1.20;62.05
63819;BME280;49970;54.976;73.248;2023-03-22T08:38:43;100829.84;;;1.20;62.44
63819;BME280;49970;54.976;73.248;2023-03-22T08:41:12;100818.75;;;1.12;62.73
63819;BME280;49970;54.976;73.248;2023-03-22T08:43:41;100819.66;;;1.11;62.46
63819;BME280;49970;54.976;73.248;2023-03-22T08:46:08;100824.06;;;1.09;63.02
63819;BME280;49970;54.976;73.248;2023-03-22T08:48:34;100824.81;;;1.12;63.89
63819;BME280;49970;54.976;73.248;2023-03-22T08:51:34;100825.53;;;1.19;63.42
63819;BME280;49970;54.976;73.248;2023-03-22T08:54:30;100822.09;;;1.17;62.96
63819;BME280;49970;54.976;73.248;2023-03-22T08:57:01;100824.69;;;1.17;63.59
63819;BME280;49970;54.976;73.248;2023-03-22T08:59:56;100827.25;;;1.20;63.26
63819;BME280;49970;54.976;73.248;2023-03-22T09:02:42;100826.34;;;1.21;63.86
63819;BME280;49970;54.976;73.248;2023-03-22T09:05:09;100818.50;;;1.22;63.40
63819;BME280;49970;54.976;73.248;2023-03-22T09:07:37;100828.88;;;1.26;63.50
63819;BME280;49970;54.976;73.248;2023-03-22T09:10:19;100823.66;;;1.26;63.78
63819;BME280;49970;54.976;73.248;2023-03-22T09:12:48;100825.31;;;1.28;64.43
63819;BME280;49970;54.976;73.248;2023-03-22T09:15:14;100818.38;;;1.27;64.39
63819;BME280;49970;54.976;73.248;2023-03-22T09:17:44;100823.66;;;1.24;64.47
63819;BME280;49970;54.976;73.248;2023-03-22T09:20:11;100827.97;;;1.27;65.51
63819;BME280;49970;54.976;73.248;2023-03-22T09:22:40;100817.47;;;1.28;66.05
63819;BME280;49970;54.976;73.248;2023-03-22T09:25:08;100827.91;;;1.30;65.60
63819;BME280;49970;54.976;73.248;2023-03-22T09:27:34;100822.69;;;1.30;66.27
63819;BME280;49970;54.976;73.248;2023-03-22T09:30:11;100830.47;;;1.31;66.69
63819;BME280;49970;54.976;73.248;2023-03-22T09:32:37;100825.25;;;1.31;65.97
63819;BME280;49970;54.976;73.248;2023-03-22T09:35:05;100808.72;;;1.31;64.94
63819;BME280;49970;54.976;73.248;2023-03-22T09:37:39;100819.06;;;1.35;64.16
63819;BME280;49970;54.976;73.248;2023-03-22T09:40:06;100815.47;;;1.39;64.79
63819;BME280;49970;54.976;73.248;2023-03-22T09:42:40;100810.19;;;1.42;64.49
63819;BME280;49970;54.976;73.248;2023-03-22T09:45:21;100808.38;;;1.44;65.00
63819;BME280;49970;54.976;73.248;2023-03-22T09:47:53;100801.38;;;1.46;64.69
63819;BME280;49970;54.976;73.248;2023-03-22T09:50:29;100805.63;;;1.49;64.77
63819;BME280;49970;54.976;73.248;2023-03-22T09:52:56;100810.88;;;1.49;64.44
63819;BME280;49970;54.976;73.248;2023-03-22T09:58:14;100804.00;;;1.46;64.70
63819;BME280;49970;54.976;73.248;2023-03-22T10:00:51;100801.41;;;1.45;64.49
63819;BME280;49970;54.976;73.248;2023-03-22T10:03:31;100804.00;;;1.46;64.81
63819;BME280;49970;54.976;73.248;2023-03-22T10:06:04;100797.97;;;1.43;64.71
63819;BME280;49970;54.976;73.248;2023-03-22T10:08:46;100800.63;;;1.41;64.54
63819;BME280;49970;54.976;73.248;2023-03-22T10:11:24;100793.75;;;1.39;64.22
63819;BME280;49970;54.976;73.248;2023-03-22T10:14:01;100796.41;;;1.36;64.91
63819;BME280;49970;54.976;73.248;2023-03-22T10:16:33;100785.97;;;1.36;64.87
63819;BME280;49970;54.976;73.248;2023-03-22T10:22:08;100793.16;;;1.28;64.80
63819;BME280;49970;54.976;73.248;2023-03-22T10:24:39;100771.53;;;1.22;65.32
63819;BME280;49970;54.976;73.248;2023-03-22T10:27:16;100782.78;;;1.24;64.98
63819;BME280;49970;54.976;73.248;2023-03-22T10:30:03;100777.47;;;1.28;65.42
63819;BME280;49970;54.976;73.248;2023-03-22T10:32:54;100773.94;;;1.30;65.67
63819;BME280;49970;54.976;73.248;2023-03-22T10:35:27;100768.81;;;1.27;65.13
63819;BME280;49970;54.976;73.248;2023-03-22T10:37:57;100774.94;;;1.24;65.30
63819;BME280;49970;54.976;73.248;2023-03-22T10:40:32;100781.00;;;1.27;65.33
63819;BME280;49970;54.976;73.248;2023-03-22T10:45:50;100775.84;;;1.23;66.32
63819;BME280;49970;54.976;73.248;2023-03-22T10:48:28;100777.59;;;1.23;66.24
63819;BME280;49970;54.976;73.248;2023-03-22T10:50:58;100767.31;;;1.17;66.83
63819;BME280;49970;54.976;73.248;2023-03-22T10:53:44;100766.38;;;1.19;66.75
63819;BME280;49970;54.976;73.248;2023-03-22T10:56:13;100769.03;;;1.18;66.58
63819;BME280;49970;54.976;73.248;2023-03-22T10:58:40;100775.22;;;1.14;66.44
63819;BME280;49970;54.976;73.248;2023-03-22T11:01:12;100772.69;;;1.11;66.95
63819;BME280;49970;54.976;73.248;2023-03-22T11:03:51;100767.53;;;1.09;66.93
63819;BME280;49970;54.976;73.248;2023-03-22T11:06:28;100772.75;;;1.08;67.27
63819;BME280;49970;54.976;73.248;2023-03-22T11:09:16;100772.75;;;1.08;67.45
63819;BME280;49970;54.976;73.248;2023-03-22T11:11:52;100767.53;;;1.09;67.30
63819;BME280;49970;54.976;73.248;2023-03-22T11:17:08;100766.63;;;1.10;67.40
63819;BME280;49970;54.976;73.248;2023-03-22T11:19:39;100767.41;;;1.12;67.92
63819;BME280;49970;54.976;73.248;2023-03-22T11:22:20;100774.41;;;1.12;67.89
63819;BME280;49970;54.976;73.248;2023-03-22T11:24:58;100771.84;;;1.10;67.80
63819;BME280;49970;54.976;73.248;2023-03-22T11:27:30;100771.84;;;1.10;68.36
63819;BME280;49970;54.976;73.248;2023-03-22T11:30:19;100773.63;;;1.08;68.51
63819;BME280;49970;54.976;73.248;2023-03-22T11:32:46;100771.94;;;1.06;68.62
63819;BME280;49970;54.976;73.248;2023-03-22T11:35:20;100766.75;;;1.04;68.37
63819;BME280;49970;54.976;73.248;2023-03-22T11:37:57;100763.38;;;1.01;68.80
63819;BME280;49970;54.976;73.248;2023-03-22T11:40:31;100756.47;;;0.98;69.10
63819;BME280;49970;54.976;73.248;2023-03-22T11:43:22;100755.66;;;0.96;69.71
63819;BME280;49970;54.976;73.248;2023-03-22T11:45:53;100752.25;;;0.94;69.34
63819;BME280;49970;54.976;73.248;2023-03-22T11:48:24;100749.63;;;0.94;69.32
63819;BME280;49970;54.976;73.248;2023-03-22T11:50:54;100747.06;;;0.92;68.75
63819;BME280;49970;54.976;73.248;2023-03-22T11:53:23;100747.09;;;0.91;69.13
63819;BME280;49970;54.976;73.248;2023-03-22T11:55:57;100753.16;;;0.91;69.44
63819;BME280;49970;54.976;73.248;2023-03-22T11:58:34;100751.44;;;0.90;69.51
63819;BME280;49970;54.976;73.248;2023-03-22T12:01:18;100758.41;;;0.90;70.52
63819;BME280;49970;54.976;73.248;2023-03-22T12:03:53;100755.88;;;0.87;70.71
63819;BME280;49970;54.976;73.248;2023-03-22T12:06:27;100756.81;;;0.84;71.35
63819;BME280;49970;54.976;73.248;2023-03-22T12:08:59;100752.59;;;0.79;71.96
63819;BME280;49970;54.976;73.248;2023-03-22T12:11:42;100748.34;;;0.74;72.24
63819;BME280;49970;54.976;73.248;2023-03-22T12:14:18;100733.72;;;0.69;72.17
63819;BME280;49970;54.976;73.248;2023-03-22T12:22:00;100729.69;;;0.56;73.19
63819;BME280;49970;54.976;73.248;2023-03-22T12:24:37;100722.91;;;0.48;73.43
63819;BME280;49970;54.976;73.248;2023-03-22T12:29:35;100721.50;;;0.34;75.02
63819;BME280;49970;54.976;73.248;2023-03-22T12:32:18;100729.38;;;0.31;75.39
63819;BME280;49970;54.976;73.248;2023-03-22T12:34:56;100724.28;;;0.26;75.49
63819;BME280;49970;54.976;73.248;2023-03-22T12:37:31;100719.19;;;0.20;76.54
63819;BME280;49970;54.976;73.248;2023-03-22T12:40:07;100721.84;;;0.18;77.27
63819;BME280;49970;54.976;73.248;2023-03-22T12:45:39;100710.78;;;0.07;77.46
63819;BME280;49970;54.976;73.248;2023-03-22T12:48:38;100715.19;;;0.04;78.52
63819;BME280;49970;54.976;73.248;2023-03-22T12:51:11;100711.78;;;0.02;77.98
63819;BME280;49970;54.976;73.248;2023-03-22T12:53:43;100711.84;;;-0.02;78.37
63819;BME280;49970;54.976;73.248;2023-03-22T12:56:13;100714.56;;;-0.06;79.11
63819;BME280;49970;54.976;73.248;2023-03-22T12:58:48;100718.97;;;-0.10;79.16
63819;BME280;49970;54.976;73.248;2023-03-22T13:01:32;100712.16;;;-0.15;79.17
63819;BME280;49970;54.976;73.248;2023-03-22T13:04:53;100718.31;;;-0.19;79.59
63819;BME280;49970;54.976;73.248;2023-03-22T13:07:14;100712.34;;;-0.24;79.72
63819;BME280;49970;54.976;73.248;2023-03-22T13:09:45;100714.19;;;-0.31;79.94
63819;BME280;49970;54.976;73.248;2023-03-22T13:27:17;100707.03;;;-0.65;80.83
63819;BME280;49970;54.976;73.248;2023-03-22T13:29:54;100713.19;;;-0.69;81.44
63819;BME280;49970;54.976;73.248;2023-03-22T13:32:30;100707.19;;;-0.72;81.53
63819;BME280;49970;54.976;73.248;2023-03-22T13:35:13;100708.97;;;-0.76;81.74
63819;BME280;49970;54.976;73.248;2023-03-22T13:37:48;100699.63;;;-0.86;81.51
63819;BME280;49970;54.976;73.248;2023-03-22T13:45:35;100704.94;;;-0.92;82.07
63819;BME280;49970;54.976;73.248;2023-03-22T13:48:14;100705.00;;;-0.95;82.07
63819;BME280;49970;54.976;73.248;2023-03-22T13:50:58;100701.59;;;-1.01;82.38
63819;BME280;49970;54.976;73.248;2023-03-22T13:53:34;100699.94;;;-1.03;82.22
63819;BME280;49970;54.976;73.248;2023-03-22T13:56:11;100693.97;;;-1.08;82.48
63819;BME280;49970;54.976;73.248;2023-03-22T13:58:56;100694.91;;;-1.12;82.83
63819;BME280;49970;54.976;73.248;2023-03-22T14:01:35;100704.53;;;-1.19;83.14
63819;BME280;49970;54.976;73.248;2023-03-22T14:04:08;100703.63;;;-1.18;82.76
63819;BME280;49970;54.976;73.248;2023-03-22T14:06:56;100703.72;;;-1.22;83.07
63819;BME280;49970;54.976;73.248;2023-03-22T14:09:42;100701.16;;;-1.26;82.89
63819;BME280;49970;54.976;73.248;2023-03-22T14:12:35;100704.69;;;-1.28;82.74
63819;BME280;49970;54.976;73.248;2023-03-22T14:15:15;100696.91;;;-1.30;82.77
63819;BME280;49970;54.976;73.248;2023-03-22T14:18:04;100696.97;;;-1.34;83.00
63819;BME280;49970;54.976;73.248;2023-03-22T14:20:35;100692.72;;;-1.38;83.53
63819;BME280;49970;54.976;73.248;2023-03-22T14:23:13;100699.69;;;-1.40;83.78
63819;BME280;49970;54.976;73.248;2023-03-22T14:25:41;100697.13;;;-1.43;83.33
63819;BME280;49970;54.976;73.248;2023-03-22T14:28:21;100698.84;;;-1.42;83.81
63819;BME280;49970;54.976;73.248;2023-03-22T14:30:56;100708.44;;;-1.46;83.61
63819;BME280;49970;54.976;73.248;2023-03-22T14:33:34;100697.16;;;-1.46;83.66
63819;BME280;49970;54.976;73.248;2023-03-22T14:36:14;100702.44;;;-1.49;83.42
63819;BME280;49970;54.976;73.248;2023-03-22T14:38:51;100696.38;;;-1.52;84.03
63819;BME280;49970;54.976;73.248;2023-03-22T14:41:20;100697.31;;;-1.54;84.01
63819;BME280;49970;54.976;73.248;2023-03-22T14:43:48;100699.91;;;-1.54;84.02
63819;BME280;49970;54.976;73.248;2023-03-22T14:46:21;100690.47;;;-1.61;83.67